createdAt,value
2023-02-26T11:59:24.888Z,7.30
2023-02-26T12:04:28.019Z,3.42
2023-02-26T12:09:30.626Z,4.80
2023-02-26T12:14:50.516Z,1.20
2023-02-26T12:19:59.032Z,1.15
2023-02-26T12:25:23.657Z,1.23
2023-02-26T12:30:46.322Z,1.40
2023-02-26T12:36:04.036Z,1.77
2023-02-26T12:41:26.397Z,3.17
2023-02-26T12:46:50.772Z,1.00
2023-02-26T12:52:16.467Z,0.77
2023-02-26T12:57:47.585Z,1.00
2023-02-26T13:03:23.109Z,1.10
2023-02-26T13:08:33.521Z,1.10
2023-02-26T13:13:52.749Z,1.52
2023-02-26T13:19:02.820Z,1.05
2023-02-26T13:24:13.055Z,0.88
2023-02-26T13:29:19.383Z,0.80
2023-02-26T13:34:34.320Z,0.63
2023-02-26T13:39:46.635Z,0.80
2023-02-26T13:44:57.003Z,0.80
2023-02-26T13:50:17.431Z,1.05
2023-02-26T13:55:42.858Z,0.82
2023-02-26T14:00:48.869Z,1.25
2023-02-26T14:06:07.389Z,0.93
2023-02-26T14:11:29.097Z,1.02
2023-02-26T14:16:35.900Z,1.10
2023-02-26T14:21:50.678Z,0.70
2023-02-26T14:27:10.435Z,0.70
2023-02-26T14:32:27.305Z,1.20
2023-02-26T14:37:31.982Z,0.77
2023-02-26T14:42:39.887Z,0.70
2023-02-26T14:47:42.782Z,0.80
2023-02-26T14:53:12.088Z,1.10
2023-02-26T14:58:30.891Z,0.90
2023-02-26T15:03:55.249Z,0.90
2023-02-26T15:09:11.899Z,0.50
2023-02-26T15:14:49.418Z,0.98
2023-02-26T15:20:11.493Z,1.10
2023-02-26T15:25:21.457Z,1.63
2023-02-26T15:30:26.064Z,1.17
2023-02-26T15:35:30.475Z,1.00
2023-02-26T15:40:37.343Z,1.58
2023-02-26T15:45:43.548Z,0.70
2023-02-26T15:50:50.138Z,1.02
2023-02-26T15:55:55.897Z,0.80
2023-02-26T16:01:02.714Z,0.95
2023-02-26T16:06:08.737Z,0.90
2023-02-26T16:11:13.835Z,1.05
2023-02-26T16:16:23.069Z,1.50
2023-02-26T16:21:32.016Z,1.40
2023-02-26T16:26:39.071Z,2.13
2023-02-26T16:31:45.040Z,2.38
2023-02-26T16:36:48.237Z,1.83
2023-02-26T16:42:03.543Z,3.10
2023-02-26T16:47:10.095Z,5.60
2023-02-26T16:52:19.885Z,5.57
2023-02-26T16:57:27.429Z,2.05
2023-02-26T17:02:35.382Z,3.28
2023-02-26T17:07:48.161Z,2.40
2023-02-26T17:12:53.345Z,2.60
2023-02-26T17:17:58.087Z,4.47
2023-02-26T17:23:03.185Z,4.15
2023-02-26T17:28:06.618Z,2.50
2023-02-26T17:33:14.536Z,2.63
2023-02-26T17:38:17.449Z,2.53
2023-02-26T17:43:20.012Z,2.07
2023-02-26T17:48:24.430Z,2.30
2023-02-26T17:53:28.251Z,8.02
2023-02-26T17:58:34.590Z,6.95
2023-02-26T18:03:39.892Z,5.82
2023-02-26T18:08:43.052Z,3.17
2023-02-26T18:13:45.675Z,3.05
2023-02-26T18:18:50.758Z,1.85
2023-02-26T18:23:57.407Z,3.38
2023-02-26T18:29:00.664Z,2.78
2023-02-26T18:34:05.782Z,2.60
2023-02-26T18:39:12.028Z,3.10
2023-02-26T18:44:14.683Z,4.10
2023-02-26T18:49:20.496Z,3.15
2023-02-26T18:54:23.019Z,2.25
2023-02-26T18:59:25.604Z,2.50
2023-02-26T19:04:30.646Z,2.97
2023-02-26T19:09:34.981Z,2.80
2023-02-26T19:14:37.661Z,3.08
2023-02-26T19:19:42.324Z,4.28
2023-02-26T19:24:45.550Z,5.00
2023-02-26T19:29:50.235Z,3.78
2023-02-26T19:34:54.291Z,5.93
2023-02-26T19:39:56.969Z,6.18
2023-02-26T19:44:59.661Z,3.37
2023-02-26T19:50:04.046Z,4.45
2023-02-26T19:55:08.016Z,5.72
2023-02-26T20:00:12.383Z,3.40
2023-02-26T20:05:18.110Z,4.80
2023-02-26T20:10:23.446Z,4.57
2023-02-26T20:15:26.190Z,5.28
2023-02-26T20:20:30.276Z,4.80
2023-02-26T20:25:32.938Z,4.28
2023-02-26T20:30:36.470Z,4.88
2023-02-26T20:35:44.309Z,4.90
2023-02-26T20:40:49.158Z,4.05
2023-02-26T20:45:53.882Z,2.55
2023-02-26T20:51:06.087Z,5.72
2023-02-26T20:56:09.363Z,7.93
2023-02-26T21:01:12.098Z,5.25
2023-02-26T21:06:16.111Z,4.53
2023-02-26T21:11:18.689Z,4.88
2023-02-26T21:16:21.329Z,4.78
2023-02-26T21:21:25.462Z,3.78
2023-02-26T21:26:28.042Z,4.35
2023-02-26T21:31:32.200Z,3.47
2023-02-26T21:36:36.124Z,3.65
2023-02-26T21:41:38.661Z,3.60
2023-02-26T21:46:41.335Z,2.42
2023-02-26T21:51:45.714Z,2.42
2023-02-26T21:56:48.508Z,2.92
2023-02-26T22:01:52.358Z,3.27
2023-02-26T22:06:56.571Z,2.40
2023-02-26T22:11:59.268Z,2.33
2023-02-26T22:17:02.022Z,2.00
2023-02-26T22:22:06.013Z,2.20
2023-02-26T22:27:08.664Z,2.47
2023-02-26T22:32:11.311Z,2.38
2023-02-26T22:37:15.411Z,2.63
2023-02-26T22:42:18.035Z,1.80
2023-02-26T22:47:20.599Z,2.42
2023-02-26T22:52:24.577Z,2.95
2023-02-26T22:57:28.309Z,2.75
2023-02-26T23:07:34.832Z,2.15
2023-02-26T23:12:38.464Z,2.55
2023-02-26T23:17:41.472Z,2.40
2023-02-26T23:22:45.786Z,2.58
2023-02-26T23:27:48.441Z,3.13
2023-02-26T23:32:51.215Z,2.50
2023-02-26T23:37:55.297Z,3.27
2023-02-26T23:42:57.936Z,4.85
2023-02-26T23:48:00.549Z,4.85
2023-02-26T23:53:04.807Z,5.95
2023-02-26T23:58:07.454Z,4.88
